sensor_id;sensor_type;location;lat;lon;timestamp;P1;durP1;ratioP1;P2;durP2;ratioP2
43413;SDS011;29013;49.676;8.606;2023-06-14T00:03:18;2.84;;;1.81;;
43413;SDS011;29013;49.676;8.606;2023-06-14T00:08:40;2.3;;;1.76;;
43413;SDS011;29013;49.676;8.606;2023-06-14T00:14:04;3.2;;;2.07;;
43413;SDS011;29013;49.676;8.606;2023-06-14T00:19:29;2.9;;;1.75;;
43413;SDS011;29013;49.676;8.606;2023-06-14T00:24:48;3.71;;;1.69;;
43413;SDS011;29013;49.676;8.606;2023-06-14T00:30:14;2.75;;;2.05;;
43413;SDS011;29013;49.676;8.606;2023-06-14T00:35:58;4.4;;;2.07;;
43413;SDS011;29013;49.676;8.606;2023-06-14T00:41:19;4.09;;;2.04;;
43413;SDS011;29013;49.676;8.606;2023-06-14T00:46:42;4.33;;;2.19;;
43413;SDS011;29013;49.676;8.606;2023-06-14T00:52:08;4.44;;;1.5;;
43413;SDS011;29013;49.676;8.606;2023-06-14T00:57:32;2.08;;;1.81;;
43413;SDS011;29013;49.676;8.606;2023-06-14T01:03:19;3.47;;;1.97;;
43413;SDS011;29013;49.676;8.606;2023-06-14T01:08:46;4.62;;;1.93;;
43413;SDS011;29013;49.676;8.606;2023-06-14T01:14:08;4.1;;;2.03;;
43413;SDS011;29013;49.676;8.606;2023-06-14T01:19:29;2.76;;;1.88;;
43413;SDS011;29013;49.676;8.606;2023-06-14T01:24:54;2.05;;;1.82;;
43413;SDS011;29013;49.676;8.606;2023-06-14T01:30:20;3.46;;;2.14;;
43413;SDS011;29013;49.676;8.606;2023-06-14T01:35:46;2.9;;;1.83;;
43413;SDS011;29013;49.676;8.606;2023-06-14T01:41:10;3.43;;;1.88;;
43413;SDS011;29013;49.676;8.606;2023-06-14T01:46:52;2.68;;;2.03;;
43413;SDS011;29013;49.676;8.606;2023-06-14T01:52:15;2.75;;;1.87;;
43413;SDS011;29013;49.676;8.606;2023-06-14T01:57:55;2.32;;;1.68;;
43413;SDS011;29013;49.676;8.606;2023-06-14T02:03:19;5.76;;;2.07;;
43413;SDS011;29013;49.676;8.606;2023-06-14T02:09:05;3.06;;;2.09;;
43413;SDS011;29013;49.676;8.606;2023-06-14T02:14:29;3.12;;;2.03;;
43413;SDS011;29013;49.676;8.606;2023-06-14T02:19:53;3.62;;;1.96;;
43413;SDS011;29013;49.676;8.606;2023-06-14T02:25:17;3.27;;;2.19;;
43413;SDS011;29013;49.676;8.606;2023-06-14T02:30:40;3.71;;;1.78;;
43413;SDS011;29013;49.676;8.606;2023-06-14T02:36:05;3.21;;;2.22;;
43413;SDS011;29013;49.676;8.606;2023-06-14T02:41:28;2.62;;;1.89;;
43413;SDS011;29013;49.676;8.606;2023-06-14T02:46:51;3.67;;;2.16;;
43413;SDS011;29013;49.676;8.606;2023-06-14T02:52:51;3.27;;;2.14;;
43413;SDS011;29013;49.676;8.606;2023-06-14T02:58:15;3.05;;;1.97;;
43413;SDS011;29013;49.676;8.606;2023-06-14T03:03:38;3.75;;;1.92;;
43413;SDS011;29013;49.676;8.606;2023-06-14T03:09:03;3.46;;;2.27;;
43413;SDS011;29013;49.676;8.606;2023-06-14T03:14:27;3.58;;;2.14;;
43413;SDS011;29013;49.676;8.606;2023-06-14T03:20:07;6.25;;;2.74;;
43413;SDS011;29013;49.676;8.606;2023-06-14T03:25:31;4.34;;;2.11;;
43413;SDS011;29013;49.676;8.606;2023-06-14T03:30:49;5.45;;;2.37;;
43413;SDS011;29013;49.676;8.606;2023-06-14T03:36:08;4.97;;;2.42;;
43413;SDS011;29013;49.676;8.606;2023-06-14T03:41:29;3.37;;;2.24;;
43413;SDS011;29013;49.676;8.606;2023-06-14T03:46:55;3.21;;;2.1;;
43413;SDS011;29013;49.676;8.606;2023-06-14T03:52:20;3.76;;;2.57;;
43413;SDS011;29013;49.676;8.606;2023-06-14T03:57:45;2.07;;;1.74;;
43413;SDS011;29013;49.676;8.606;2023-06-14T04:03:10;5.0;;;2.44;;
43413;SDS011;29013;49.676;8.606;2023-06-14T04:08:32;3.48;;;2.3;;
43413;SDS011;29013;49.676;8.606;2023-06-14T04:13:56;5.32;;;2.01;;
43413;SDS011;29013;49.676;8.606;2023-06-14T04:19:22;3.18;;;2.19;;
43413;SDS011;29013;49.676;8.606;2023-06-14T04:24:41;4.67;;;2.15;;
43413;SDS011;29013;49.676;8.606;2023-06-14T04:30:09;2.95;;;2.15;;
43413;SDS011;29013;49.676;8.606;2023-06-14T04:35:58;4.22;;;2.18;;
43413;SDS011;29013;49.676;8.606;2023-06-14T04:41:21;3.34;;;1.99;;
43413;SDS011;29013;49.676;8.606;2023-06-14T04:47:00;3.65;;;1.95;;
43413;SDS011;29013;49.676;8.606;2023-06-14T04:52:23;2.73;;;1.84;;
43413;SDS011;29013;49.676;8.606;2023-06-14T04:57:48;4.7;;;1.95;;
43413;SDS011;29013;49.676;8.606;2023-06-14T05:03:12;2.75;;;2.16;;
43413;SDS011;29013;49.676;8.606;2023-06-14T05:08:34;2.13;;;1.83;;
43413;SDS011;29013;49.676;8.606;2023-06-14T05:13:58;3.03;;;1.97;;
43413;SDS011;29013;49.676;8.606;2023-06-14T05:19:20;5.3;;;2.12;;
43413;SDS011;29013;49.676;8.606;2023-06-14T05:25:08;5.62;;;2.67;;
43413;SDS011;29013;49.676;8.606;2023-06-14T05:30:31;2.77;;;2.08;;
43413;SDS011;29013;49.676;8.606;2023-06-14T05:36:13;3.59;;;2.36;;
43413;SDS011;29013;49.676;8.606;2023-06-14T05:41:37;2.23;;;1.83;;
43413;SDS011;29013;49.676;8.606;2023-06-14T05:47:01;4.73;;;2.44;;
43413;SDS011;29013;49.676;8.606;2023-06-14T05:52:26;4.0;;;2.3;;
43413;SDS011;29013;49.676;8.606;2023-06-14T05:57:50;2.91;;;2.18;;
43413;SDS011;29013;49.676;8.606;2023-06-14T06:03:15;3.56;;;2.2;;
43413;SDS011;29013;49.676;8.606;2023-06-14T06:08:37;2.28;;;1.72;;
43413;SDS011;29013;49.676;8.606;2023-06-14T06:14:02;3.06;;;1.83;;
43413;SDS011;29013;49.676;8.606;2023-06-14T06:19:29;3.8;;;2.35;;
43413;SDS011;29013;49.676;8.606;2023-06-14T06:24:51;2.39;;;1.87;;
43413;SDS011;29013;49.676;8.606;2023-06-14T06:30:15;5.18;;;2.31;;
43413;SDS011;29013;49.676;8.606;2023-06-14T06:35:39;4.79;;;2.12;;
43413;SDS011;29013;49.676;8.606;2023-06-14T06:41:04;1.74;;;1.68;;
43413;SDS011;29013;49.676;8.606;2023-06-14T06:46:28;3.8;;;2.41;;
43413;SDS011;29013;49.676;8.606;2023-06-14T06:52:09;3.01;;;1.91;;
43413;SDS011;29013;49.676;8.606;2023-06-14T06:57:32;3.09;;;2.09;;
43413;SDS011;29013;49.676;8.606;2023-06-14T07:02:52;3.23;;;1.96;;
43413;SDS011;29013;49.676;8.606;2023-06-14T07:08:21;2.62;;;1.73;;
43413;SDS011;29013;49.676;8.606;2023-06-14T07:13:44;3.98;;;2.24;;
43413;SDS011;29013;49.676;8.606;2023-06-14T07:19:09;2.61;;;2.03;;
43413;SDS011;29013;49.676;8.606;2023-06-14T07:24:30;2.66;;;1.82;;
43413;SDS011;29013;49.676;8.606;2023-06-14T07:29:52;2.5;;;2.05;;
43413;SDS011;29013;49.676;8.606;2023-06-14T07:35:17;4.63;;;1.79;;
43413;SDS011;29013;49.676;8.606;2023-06-14T07:40:43;3.72;;;1.96;;
43413;SDS011;29013;49.676;8.606;2023-06-14T07:46:04;3.9;;;1.84;;
43413;SDS011;29013;49.676;8.606;2023-06-14T07:51:25;5.82;;;2.02;;
43413;SDS011;29013;49.676;8.606;2023-06-14T07:56:51;3.33;;;1.99;;
43413;SDS011;29013;49.676;8.606;2023-06-14T08:02:15;4.54;;;2.11;;
43413;SDS011;29013;49.676;8.606;2023-06-14T08:07:42;3.16;;;2.0;;
43413;SDS011;29013;49.676;8.606;2023-06-14T08:13:06;2.93;;;2.59;;
43413;SDS011;29013;49.676;8.606;2023-06-14T08:18:49;3.51;;;1.87;;
43413;SDS011;29013;49.676;8.606;2023-06-14T08:24:07;3.98;;;1.82;;
43413;SDS011;29013;49.676;8.606;2023-06-14T08:29:32;4.73;;;1.77;;
43413;SDS011;29013;49.676;8.606;2023-06-14T08:34:58;3.87;;;1.9;;
43413;SDS011;29013;49.676;8.606;2023-06-14T08:40:23;3.99;;;1.37;;
43413;SDS011;29013;49.676;8.606;2023-06-14T08:45:47;2.97;;;1.9;;
43413;SDS011;29013;49.676;8.606;2023-06-14T08:51:12;6.0;;;1.73;;
43413;SDS011;29013;49.676;8.606;2023-06-14T08:56:38;1.95;;;1.66;;
43413;SDS011;29013;49.676;8.606;2023-06-14T09:02:03;2.2;;;1.55;;
43413;SDS011;29013;49.676;8.606;2023-06-14T09:07:29;3.37;;;1.52;;
43413;SDS011;29013;49.676;8.606;2023-06-14T09:12:52;1.96;;;1.46;;
43413;SDS011;29013;49.676;8.606;2023-06-14T09:18:16;2.7;;;1.64;;
43413;SDS011;29013;49.676;8.606;2023-06-14T09:23:42;2.87;;;1.68;;
43413;SDS011;29013;49.676;8.606;2023-06-14T09:29:04;5.14;;;1.83;;
43413;SDS011;29013;49.676;8.606;2023-06-14T09:34:27;2.14;;;1.48;;
43413;SDS011;29013;49.676;8.606;2023-06-14T09:39:51;2.93;;;1.56;;
43413;SDS011;29013;49.676;8.606;2023-06-14T09:45:16;2.14;;;1.53;;
43413;SDS011;29013;49.676;8.606;2023-06-14T09:51:08;3.06;;;1.61;;
43413;SDS011;29013;49.676;8.606;2023-06-14T09:56:33;2.49;;;1.47;;
43413;SDS011;29013;49.676;8.606;2023-06-14T10:01:56;1.77;;;1.34;;
43413;SDS011;29013;49.676;8.606;2023-06-14T10:07:20;1.51;;;1.29;;
43413;SDS011;29013;49.676;8.606;2023-06-14T10:12:45;3.43;;;1.45;;
43413;SDS011;29013;49.676;8.606;2023-06-14T10:18:09;1.41;;;1.23;;
43413;SDS011;29013;49.676;8.606;2023-06-14T10:23:28;2.22;;;1.42;;
43413;SDS011;29013;49.676;8.606;2023-06-14T10:28:46;3.03;;;1.7;;
43413;SDS011;29013;49.676;8.606;2023-06-14T10:34:20;2.54;;;1.61;;
43413;SDS011;29013;49.676;8.606;2023-06-14T10:39:40;3.08;;;1.64;;
43413;SDS011;29013;49.676;8.606;2023-06-14T10:45:06;2.03;;;1.37;;
43413;SDS011;29013;49.676;8.606;2023-06-14T10:50:32;2.39;;;1.38;;
43413;SDS011;29013;49.676;8.606;2023-06-14T10:55:57;1.76;;;1.57;;
43413;SDS011;29013;49.676;8.606;2023-06-14T11:01:35;1.64;;;1.39;;
43413;SDS011;29013;49.676;8.606;2023-06-14T11:07:04;3.29;;;1.8;;
43413;SDS011;29013;49.676;8.606;2023-06-14T11:12:27;3.78;;;1.75;;
43413;SDS011;29013;49.676;8.606;2023-06-14T11:17:52;1.75;;;1.44;;
43413;SDS011;29013;49.676;8.606;2023-06-14T11:23:18;2.02;;;1.7;;
43413;SDS011;29013;49.676;8.606;2023-06-14T11:29:04;2.54;;;1.51;;
43413;SDS011;29013;49.676;8.606;2023-06-14T11:34:26;3.12;;;1.38;;
43413;SDS011;29013;49.676;8.606;2023-06-14T11:39:51;1.2;;;1.14;;
43413;SDS011;29013;49.676;8.606;2023-06-14T11:45:41;2.42;;;1.65;;
43413;SDS011;29013;49.676;8.606;2023-06-14T11:51:03;2.53;;;1.57;;
43413;SDS011;29013;49.676;8.606;2023-06-14T11:56:30;1.6;;;1.33;;
43413;SDS011;29013;49.676;8.606;2023-06-14T12:01:55;1.44;;;1.24;;
43413;SDS011;29013;49.676;8.606;2023-06-14T12:07:17;1.4;;;1.14;;
43413;SDS011;29013;49.676;8.606;2023-06-14T12:12:39;2.69;;;1.54;;
43413;SDS011;29013;49.676;8.606;2023-06-14T12:18:01;1.9;;;1.56;;
43413;SDS011;29013;49.676;8.606;2023-06-14T12:23:28;2.05;;;1.43;;
43413;SDS011;29013;49.676;8.606;2023-06-14T12:29:04;1.48;;;1.4;;
43413;SDS011;29013;49.676;8.606;2023-06-14T12:34:25;1.76;;;1.38;;
43413;SDS011;29013;49.676;8.606;2023-06-14T12:39:49;2.49;;;1.28;;
43413;SDS011;29013;49.676;8.606;2023-06-14T12:45:13;1.65;;;1.4;;
43413;SDS011;29013;49.676;8.606;2023-06-14T12:50:38;3.83;;;1.39;;
43413;SDS011;29013;49.676;8.606;2023-06-14T12:56:01;2.09;;;1.48;;
43413;SDS011;29013;49.676;8.606;2023-06-14T13:01:26;6.09;;;1.61;;
43413;SDS011;29013;49.676;8.606;2023-06-14T13:06:51;5.19;;;1.31;;
43413;SDS011;29013;49.676;8.606;2023-06-14T13:12:15;4.45;;;1.38;;
43413;SDS011;29013;49.676;8.606;2023-06-14T13:17:39;4.45;;;1.34;;
43413;SDS011;29013;49.676;8.606;2023-06-14T13:22:58;2.16;;;1.4;;
43413;SDS011;29013;49.676;8.606;2023-06-14T13:28:23;2.96;;;1.35;;
43413;SDS011;29013;49.676;8.606;2023-06-14T13:33:47;2.66;;;1.17;;
43413;SDS011;29013;49.676;8.606;2023-06-14T13:39:13;1.39;;;1.18;;
43413;SDS011;29013;49.676;8.606;2023-06-14T13:44:37;1.56;;;1.14;;
43413;SDS011;29013;49.676;8.606;2023-06-14T13:50:16;2.01;;;1.33;;
43413;SDS011;29013;49.676;8.606;2023-06-14T13:55:50;2.13;;;1.46;;
43413;SDS011;29013;49.676;8.606;2023-06-14T14:01:12;2.51;;;1.48;;
43413;SDS011;29013;49.676;8.606;2023-06-14T14:06:37;1.22;;;1.1;;
43413;SDS011;29013;49.676;8.606;2023-06-14T14:12:23;1.58;;;1.34;;
43413;SDS011;29013;49.676;8.606;2023-06-14T14:17:47;4.57;;;1.39;;
43413;SDS011;29013;49.676;8.606;2023-06-14T14:23:12;1.38;;;1.06;;
43413;SDS011;29013;49.676;8.606;2023-06-14T14:28:37;3.3;;;1.5;;
43413;SDS011;29013;49.676;8.606;2023-06-14T14:34:00;1.82;;;1.48;;
43413;SDS011;29013;49.676;8.606;2023-06-14T14:39:23;1.74;;;1.36;;
43413;SDS011;29013;49.676;8.606;2023-06-14T14:44:47;2.26;;;1.61;;
43413;SDS011;29013;49.676;8.606;2023-06-14T14:50:13;2.72;;;1.07;;
43413;SDS011;29013;49.676;8.606;2023-06-14T14:55:38;1.85;;;1.48;;
43413;SDS011;29013;49.676;8.606;2023-06-14T15:01:02;6.66;;;1.29;;
43413;SDS011;29013;49.676;8.606;2023-06-14T15:06:23;5.85;;;1.53;;
43413;SDS011;29013;49.676;8.606;2023-06-14T15:11:47;3.07;;;1.15;;
43413;SDS011;29013;49.676;8.606;2023-06-14T15:17:11;1.41;;;1.19;;
43413;SDS011;29013;49.676;8.606;2023-06-14T15:22:36;1.44;;;1.25;;
43413;SDS011;29013;49.676;8.606;2023-06-14T15:28:03;2.04;;;1.06;;
43413;SDS011;29013;49.676;8.606;2023-06-14T15:33:28;5.27;;;1.01;;
43413;SDS011;29013;49.676;8.606;2023-06-14T15:38:50;1.45;;;1.16;;
43413;SDS011;29013;49.676;8.606;2023-06-14T15:44:13;1.65;;;1.32;;
43413;SDS011;29013;49.676;8.606;2023-06-14T15:49:39;4.29;;;1.37;;
43413;SDS011;29013;49.676;8.606;2023-06-14T15:55:06;1.3;;;1.12;;
43413;SDS011;29013;49.676;8.606;2023-06-14T16:00:54;1.48;;;1.25;;
43413;SDS011;29013;49.676;8.606;2023-06-14T16:06:18;3.61;;;1.39;;
43413;SDS011;29013;49.676;8.606;2023-06-14T16:11:41;1.95;;;1.0;;
43413;SDS011;29013;49.676;8.606;2023-06-14T16:17:07;1.84;;;1.18;;
43413;SDS011;29013;49.676;8.606;2023-06-14T16:22:26;1.98;;;1.19;;
43413;SDS011;29013;49.676;8.606;2023-06-14T16:28:14;1.54;;;1.06;;
43413;SDS011;29013;49.676;8.606;2023-06-14T16:33:32;2.76;;;1.44;;
43413;SDS011;29013;49.676;8.606;2023-06-14T16:38:59;2.31;;;1.19;;
43413;SDS011;29013;49.676;8.606;2023-06-14T16:44:47;1.51;;;1.08;;
43413;SDS011;29013;49.676;8.606;2023-06-14T16:50:12;1.72;;;0.97;;
43413;SDS011;29013;49.676;8.606;2023-06-14T16:55:37;1.11;;;0.93;;
43413;SDS011;29013;49.676;8.606;2023-06-14T17:01:00;1.66;;;1.32;;
43413;SDS011;29013;49.676;8.606;2023-06-14T17:06:25;2.84;;;1.01;;
43413;SDS011;29013;49.676;8.606;2023-06-14T17:11:47;1.33;;;0.9;;
43413;SDS011;29013;49.676;8.606;2023-06-14T17:17:12;0.65;;;0.65;;
43413;SDS011;29013;49.676;8.606;2023-06-14T17:22:55;1.31;;;1.07;;
43413;SDS011;29013;49.676;8.606;2023-06-14T17:28:18;1.17;;;1.1;;
43413;SDS011;29013;49.676;8.606;2023-06-14T17:33:41;1.68;;;0.82;;
43413;SDS011;29013;49.676;8.606;2023-06-14T17:39:05;1.14;;;0.78;;
43413;SDS011;29013;49.676;8.606;2023-06-14T17:44:28;1.33;;;1.06;;
43413;SDS011;29013;49.676;8.606;2023-06-14T17:49:51;1.21;;;1.08;;
43413;SDS011;29013;49.676;8.606;2023-06-14T17:55:16;3.1;;;0.99;;
43413;SDS011;29013;49.676;8.606;2023-06-14T18:00:41;1.19;;;0.88;;
43413;SDS011;29013;49.676;8.606;2023-06-14T18:06:06;3.1;;;1.18;;
43413;SDS011;29013;49.676;8.606;2023-06-14T18:11:31;1.45;;;0.95;;
43413;SDS011;29013;49.676;8.606;2023-06-14T18:16:55;1.73;;;0.72;;
43413;SDS011;29013;49.676;8.606;2023-06-14T18:22:18;1.98;;;1.03;;
43413;SDS011;29013;49.676;8.606;2023-06-14T18:27:40;1.31;;;0.82;;
43413;SDS011;29013;49.676;8.606;2023-06-14T18:33:06;3.12;;;0.93;;
43413;SDS011;29013;49.676;8.606;2023-06-14T18:38:30;1.78;;;0.95;;
43413;SDS011;29013;49.676;8.606;2023-06-14T18:43:53;1.51;;;0.99;;
43413;SDS011;29013;49.676;8.606;2023-06-14T18:49:39;3.59;;;1.28;;
43413;SDS011;29013;49.676;8.606;2023-06-14T18:54:57;1.04;;;0.96;;
43413;SDS011;29013;49.676;8.606;2023-06-14T19:00:19;2.56;;;0.92;;
43413;SDS011;29013;49.676;8.606;2023-06-14T19:05:38;2.01;;;0.88;;
43413;SDS011;29013;49.676;8.606;2023-06-14T19:11:01;1.61;;;1.16;;
43413;SDS011;29013;49.676;8.606;2023-06-14T19:16:25;1.47;;;1.09;;
43413;SDS011;29013;49.676;8.606;2023-06-14T19:21:49;1.42;;;0.92;;
43413;SDS011;29013;49.676;8.606;2023-06-14T19:27:07;1.17;;;0.84;;
43413;SDS011;29013;49.676;8.606;2023-06-14T19:32:26;1.51;;;1.07;;
43413;SDS011;29013;49.676;8.606;2023-06-14T19:37:51;1.43;;;1.01;;
43413;SDS011;29013;49.676;8.606;2023-06-14T19:43:13;1.91;;;1.2;;
43413;SDS011;29013;49.676;8.606;2023-06-14T19:48:33;2.15;;;1.27;;
43413;SDS011;29013;49.676;8.606;2023-06-14T19:53:56;1.38;;;1.04;;
43413;SDS011;29013;49.676;8.606;2023-06-14T19:59:20;3.43;;;1.15;;
43413;SDS011;29013;49.676;8.606;2023-06-14T20:04:43;3.04;;;1.2;;
43413;SDS011;29013;49.676;8.606;2023-06-14T20:10:08;1.3;;;0.87;;
43413;SDS011;29013;49.676;8.606;2023-06-14T20:15:32;4.52;;;1.5;;
43413;SDS011;29013;49.676;8.606;2023-06-14T20:20:57;2.54;;;1.21;;
43413;SDS011;29013;49.676;8.606;2023-06-14T20:26:19;2.38;;;1.27;;
43413;SDS011;29013;49.676;8.606;2023-06-14T20:31:44;1.78;;;1.26;;
43413;SDS011;29013;49.676;8.606;2023-06-14T20:37:08;1.56;;;1.31;;
43413;SDS011;29013;49.676;8.606;2023-06-14T20:42:54;2.07;;;1.29;;
43413;SDS011;29013;49.676;8.606;2023-06-14T20:48:11;2.08;;;1.12;;
43413;SDS011;29013;49.676;8.606;2023-06-14T20:53:44;2.38;;;1.31;;
43413;SDS011;29013;49.676;8.606;2023-06-14T20:59:05;2.08;;;1.12;;
43413;SDS011;29013;49.676;8.606;2023-06-14T21:04:30;3.98;;;1.34;;
43413;SDS011;29013;49.676;8.606;2023-06-14T21:09:53;2.59;;;1.36;;
43413;SDS011;29013;49.676;8.606;2023-06-14T21:15:18;1.22;;;1.14;;
43413;SDS011;29013;49.676;8.606;2023-06-14T21:20:44;2.14;;;1.24;;
43413;SDS011;29013;49.676;8.606;2023-06-14T21:26:04;1.76;;;1.19;;
43413;SDS011;29013;49.676;8.606;2023-06-14T21:31:28;2.35;;;1.32;;
43413;SDS011;29013;49.676;8.606;2023-06-14T21:36:53;1.54;;;1.44;;
43413;SDS011;29013;49.676;8.606;2023-06-14T21:42:13;1.65;;;1.38;;
43413;SDS011;29013;49.676;8.606;2023-06-14T21:47:34;2.17;;;1.39;;
43413;SDS011;29013;49.676;8.606;2023-06-14T21:52:58;1.62;;;1.22;;
43413;SDS011;29013;49.676;8.606;2023-06-14T21:58:22;1.59;;;1.26;;
43413;SDS011;29013;49.676;8.606;2023-06-14T22:03:45;2.06;;;1.14;;
43413;SDS011;29013;49.676;8.606;2023-06-14T22:09:10;1.19;;;1.01;;
43413;SDS011;29013;49.676;8.606;2023-06-14T22:14:37;1.6;;;1.16;;
43413;SDS011;29013;49.676;8.606;2023-06-14T22:20:01;1.55;;;1.21;;
43413;SDS011;29013;49.676;8.606;2023-06-14T22:25:24;2.04;;;1.47;;
43413;SDS011;29013;49.676;8.606;2023-06-14T22:30:42;1.25;;;1.08;;
43413;SDS011;29013;49.676;8.606;2023-06-14T22:36:03;4.86;;;1.31;;
43413;SDS011;29013;49.676;8.606;2023-06-14T22:41:48;5.04;;;1.52;;
43413;SDS011;29013;49.676;8.606;2023-06-14T22:47:09;2.96;;;1.46;;
43413;SDS011;29013;49.676;8.606;2023-06-14T22:52:34;2.16;;;1.53;;
43413;SDS011;29013;49.676;8.606;2023-06-14T22:57:58;2.39;;;1.26;;
43413;SDS011;29013;49.676;8.606;2023-06-14T23:03:19;1.42;;;1.27;;
43413;SDS011;29013;49.676;8.606;2023-06-14T23:09:03;1.93;;;1.36;;
43413;SDS011;29013;49.676;8.606;2023-06-14T23:14:21;1.1;;;0.98;;
43413;SDS011;29013;49.676;8.606;2023-06-14T23:19:44;2.01;;;1.3;;
43413;SDS011;29013;49.676;8.606;2023-06-14T23:25:10;3.53;;;1.19;;
43413;SDS011;29013;49.676;8.606;2023-06-14T23:30:31;1.38;;;1.13;;
43413;SDS011;29013;49.676;8.606;2023-06-14T23:35:51;1.89;;;1.09;;
43413;SDS011;29013;49.676;8.606;2023-06-14T23:41:13;1.65;;;1.19;;
43413;SDS011;29013;49.676;8.606;2023-06-14T23:46:35;1.19;;;1.12;;
43413;SDS011;29013;49.676;8.606;2023-06-14T23:52:00;2.17;;;1.3;;
43413;SDS011;29013;49.676;8.606;2023-06-14T23:57:23;3.1;;;1.29;;
